Time;durP1;ratioP1;P1;durP2;ratioP2;P2;SDS_P1;SDS_P2;PMS_P1;PMS_P2;Temp;Humidity;BMP_temperature;BMP_pressure;BME280_temperature;BME280_humidity;BME280_pressure;Samples;Min_cycle;Max_cycle;Signal;HPM_P1;HPM_P2
2023/11/26 00:01:03;;;;;;;;;58.75;48.75;;;;;;;;4921373;28;45301;-77
2023/11/26 00:03:28;;;;;;;;;50.50;43.75;;;;;;;;4907167;28;45736;-78
2023/11/26 00:05:53;;;;;;;;;45.00;41.00;;;;;;;;4924649;28;45347;-77
2023/11/26 00:08:18;;;;;;;;;55.25;46.25;;;;;;;;4924414;28;46635;-77
2023/11/26 00:10:43;;;;;;;;;57.25;46.75;;;;;;;;4924302;28;45314;-77
2023/11/26 00:13:08;;;;;;;;;56.25;47.50;;;;;;;;4924819;28;45289;-78
2023/11/26 00:15:33;;;;;;;;;54.75;45.75;;;;;;;;4924484;28;45385;-78
2023/11/26 00:17:59;;;;;;;;;48.75;43.50;;;;;;;;4907151;28;47967;-78
2023/11/26 00:20:24;;;;;;;;;53.25;46.25;;;;;;;;4924360;28;45275;-77
2023/11/26 00:22:49;;;;;;;;;57.00;47.00;;;;;;;;4924607;28;45306;-77
2023/11/26 00:25:14;;;;;;;;;56.20;45.40;;;;;;;;4924221;28;45247;-77
2023/11/26 00:27:39;;;;;;;;;63.25;52.00;;;;;;;;4924130;28;46154;-77
2023/11/26 00:30:05;;;;;;;;;60.00;49.75;;;;;;;;4906714;28;45308;-77
2023/11/26 00:32:30;;;;;;;;;62.50;51.25;;;;;;;;4924434;28;45329;-76
2023/11/26 00:34:55;;;;;;;;;60.50;51.75;;;;;;;;4923916;28;45245;-78
2023/11/26 00:37:20;;;;;;;;;59.50;50.00;;;;;;;;4924056;28;45226;-76
2023/11/26 00:39:46;;;;;;;;;59.25;49.50;;;;;;;;4923953;28;45224;-76
2023/11/26 00:42:11;;;;;;;;;47.75;42.25;;;;;;;;4897892;29;45326;-76
2023/11/26 00:44:37;;;;;;;;;63.00;51.50;;;;;;;;4904798;29;45266;-76
2023/11/26 00:47:02;;;;;;;;;51.75;42.50;;;;;;;;4904732;29;46336;-77
2023/11/26 00:49:27;;;;;;;;;59.75;47.50;;;;;;;;4904595;29;45460;-75
2023/11/26 00:51:52;;;;;;;;;57.50;47.00;;;;;;;;4905092;29;45490;-75
2023/11/26 00:54:18;;;;;;;;;68.00;54.00;;;;;;;;4904686;29;45468;-77
2023/11/26 00:56:43;;;;;;;;;62.00;51.50;;;;;;;;4890041;28;48558;-75
2023/11/26 00:59:08;;;;;;;;;60.00;50.00;;;;;;;;4923754;28;45221;-77
2023/11/26 01:01:34;;;;;;;;;60.00;51.00;;;;;;;;4891795;29;45177;-76
2023/11/26 01:03:59;;;;;;;;;58.25;48.00;;;;;;;;4904320;29;45287;-75
2023/11/26 01:06:25;;;;;;;;;57.00;49.00;;;;;;;;4904555;29;46187;-77
2023/11/26 01:08:50;;;;;;;;;57.50;48.75;;;;;;;;4904568;29;45465;-75
2023/11/26 01:11:15;;;;;;;;;65.50;54.75;;;;;;;;4904447;29;45399;-75
2023/11/26 01:13:41;;;;;;;;;61.25;50.25;;;;;;;;4904009;29;45338;-75
2023/11/26 01:16:07;;;;;;;;;58.00;49.00;;;;;;;;4904424;29;45427;-75
2023/11/26 01:18:32;;;;;;;;;65.25;53.50;;;;;;;;4887209;29;45425;-75
2023/11/26 01:20:57;;;;;;;;;63.25;49.75;;;;;;;;4904661;29;45404;-75
2023/11/26 01:23:22;;;;;;;;;63.25;52.50;;;;;;;;4904299;29;45322;-76
2023/11/26 01:25:48;;;;;;;;;62.75;51.25;;;;;;;;4903997;29;45366;-75
2023/11/26 01:28:13;;;;;;;;;63.75;53.00;;;;;;;;4904192;29;45346;-76
2023/11/26 01:30:38;;;;;;;;;56.50;46.00;;;;;;;;4904378;29;45334;-75
2023/11/26 01:33:04;;;;;;;;;57.25;48.75;;;;;;;;4887095;29;47081;-77
2023/11/26 01:35:29;;;;;;;;;60.75;49.75;;;;;;;;4903849;29;45512;-76
2023/11/26 01:37:54;;;;;;;;;57.75;48.00;;;;;;;;4904121;29;45246;-75
2023/11/26 01:40:20;;;;;;;;;49.00;41.50;;;;;;;;4904120;29;45591;-76
2023/11/26 01:42:45;;;;;;;;;48.25;42.50;;;;;;;;4904067;29;45268;-75
2023/11/26 01:45:11;;;;;;;;;41.50;38.75;;;;;;;;4886952;29;47223;-75
2023/11/26 01:47:38;;;;;;;;;38.75;36.00;;;;;;;;4904065;29;45221;-76
2023/11/26 01:50:03;;;;;;;;;43.75;40.50;;;;;;;;4886879;29;45352;-77
2023/11/26 01:52:28;;;;;;;;;45.50;38.75;;;;;;;;4903953;29;45301;-76
2023/11/26 01:54:53;;;;;;;;;43.50;38.00;;;;;;;;4903594;29;46542;-76
2023/11/26 01:57:20;;;;;;;;;40.75;37.75;;;;;;;;4910922;28;45244;-75
2023/11/26 01:59:45;;;;;;;;;53.25;45.50;;;;;;;;4923052;28;45267;-75
2023/11/26 02:02:10;;;;;;;;;45.00;39.25;;;;;;;;4922810;28;45224;-76
2023/11/26 02:04:36;;;;;;;;;65.25;51.00;;;;;;;;4905352;28;46892;-75
2023/11/26 02:07:02;;;;;;;;;63.75;50.50;;;;;;;;4922657;28;45339;-76
2023/11/26 02:09:28;;;;;;;;;61.00;49.00;;;;;;;;4922438;28;45411;-75
2023/11/26 02:11:53;;;;;;;;;62.50;50.75;;;;;;;;4922401;28;45413;-76
2023/11/26 02:14:18;;;;;;;;;64.75;50.00;;;;;;;;4922461;28;46247;-75
2023/11/26 02:16:47;;;;;;;;;60.75;50.00;;;;;;;;4922827;28;45406;-75
2023/11/26 02:19:20;;;;;;;;;59.00;48.75;;;;;;;;4922720;28;45351;-75
2023/11/26 02:21:45;;;;;;;;;57.50;48.50;;;;;;;;4922324;28;45317;-75
2023/11/26 02:24:14;;;;;;;;;56.75;46.50;;;;;;;;4921295;28;45360;-75
2023/11/26 02:26:39;;;;;;;;;60.50;50.50;;;;;;;;4922535;28;45155;-76
2023/11/26 02:29:08;;;;;;;;;60.50;48.25;;;;;;;;4922566;28;45204;-75
2023/11/26 02:31:33;;;;;;;;;63.00;49.25;;;;;;;;4922323;28;45490;-75
2023/11/26 02:33:58;;;;;;;;;73.75;58.75;;;;;;;;4922360;28;45394;-76
2023/11/26 02:36:26;;;;;;;;;60.25;50.00;;;;;;;;4905266;28;45361;-75
2023/11/26 02:38:52;;;;;;;;;56.75;48.75;;;;;;;;4922159;28;45292;-75
2023/11/26 02:41:17;;;;;;;;;55.50;46.00;;;;;;;;4907184;28;45225;-76
2023/11/26 02:43:43;;;;;;;;;55.00;45.00;;;;;;;;4902997;29;45830;-76
2023/11/26 02:46:09;;;;;;;;;55.50;44.75;;;;;;;;4902720;29;45465;-77
2023/11/26 02:48:34;;;;;;;;;53.00;45.50;;;;;;;;4902470;29;45220;-76
2023/11/26 02:50:59;;;;;;;;;47.25;42.25;;;;;;;;4886249;29;45772;-76
2023/11/26 02:53:24;;;;;;;;;51.50;42.75;;;;;;;;4903222;29;45398;-76
2023/11/26 02:55:50;;;;;;;;;51.00;43.75;;;;;;;;4885847;29;46142;-75
2023/11/26 02:58:16;;;;;;;;;57.75;45.75;;;;;;;;4917573;28;45329;-76
2023/11/26 03:00:42;;;;;;;;;47.00;42.25;;;;;;;;4921911;28;45390;-76
2023/11/26 03:03:07;;;;;;;;;45.25;41.50;;;;;;;;4921864;28;45328;-76
2023/11/26 03:05:33;;;;;;;;;50.25;43.25;;;;;;;;4921801;28;45296;-76
2023/11/26 03:08:08;;;;;;;;;47.75;40.25;;;;;;;;4921802;28;45838;-76
2023/11/26 03:13:28;;;;;;;;;45.00;41.50;;;;;;;;4886270;28;45435;-76
2023/11/26 03:15:54;;;;;;;;;50.75;43.50;;;;;;;;4904336;28;45272;-75
2023/11/26 03:18:19;;;;;;;;;44.00;41.25;;;;;;;;4904642;28;45245;-76
2023/11/26 03:20:45;;;;;;;;;55.75;44.75;;;;;;;;4921322;28;45496;-76
2023/11/26 03:23:11;;;;;;;;;44.00;40.00;;;;;;;;4921081;28;45435;-75
2023/11/26 03:25:36;;;;;;;;;56.50;47.75;;;;;;;;4904222;28;45438;-75
2023/11/26 03:28:04;;;;;;;;;55.50;46.75;;;;;;;;4921824;28;45355;-75
2023/11/26 03:30:29;;;;;;;;;59.75;48.50;;;;;;;;4921655;28;45529;-76
2023/11/26 03:32:55;;;;;;;;;46.50;39.75;;;;;;;;4921435;28;45308;-76
2023/11/26 03:35:20;;;;;;;;;45.50;41.25;;;;;;;;4921711;28;45205;-76
2023/11/26 03:37:45;;;;;;;;;57.75;47.75;;;;;;;;4908010;28;45321;-76
2023/11/26 03:40:12;;;;;;;;;52.50;45.75;;;;;;;;4924765;28;45396;-76
2023/11/26 03:42:37;;;;;;;;;46.50;42.00;;;;;;;;4924849;28;45365;-76
2023/11/26 03:45:06;;;;;;;;;52.25;43.25;;;;;;;;4924674;28;45323;-75
2023/11/26 03:47:32;;;;;;;;;50.50;42.75;;;;;;;;4925027;28;45340;-75
2023/11/26 03:49:57;;;;;;;;;43.75;41.50;;;;;;;;4907294;28;45804;-75
2023/11/26 03:52:23;;;;;;;;;48.00;42.75;;;;;;;;4924591;28;45375;-76
2023/11/26 03:54:48;;;;;;;;;52.25;45.00;;;;;;;;4924603;28;45464;-75
2023/11/26 03:57:14;;;;;;;;;37.50;35.00;;;;;;;;4918144;28;45431;-75
2023/11/26 03:59:42;;;;;;;;;47.25;43.00;;;;;;;;4888312;29;46265;-75
2023/11/26 04:02:08;;;;;;;;;49.50;42.25;;;;;;;;4905445;29;45373;-76
2023/11/26 04:04:34;;;;;;;;;52.50;44.75;;;;;;;;4905082;29;45430;-75
2023/11/26 04:06:59;;;;;;;;;50.00;44.25;;;;;;;;4905678;29;45335;-75
2023/11/26 04:09:25;;;;;;;;;42.00;40.50;;;;;;;;4887863;29;46004;-75
2023/11/26 04:11:51;;;;;;;;;47.50;43.50;;;;;;;;4888026;29;47170;-76
2023/11/26 04:14:17;;;;;;;;;50.50;45.25;;;;;;;;4905112;29;45369;-76
2023/11/26 04:16:48;;;;;;;;;50.00;42.00;;;;;;;;4905326;29;45344;-75
2023/11/26 04:19:13;;;;;;;;;49.75;43.00;;;;;;;;4905078;29;45543;-75
2023/11/26 04:21:39;;;;;;;;;48.25;41.75;;;;;;;;4904689;29;45500;-76
2023/11/26 04:24:04;;;;;;;;;44.00;39.50;;;;;;;;4887710;29;45292;-75
2023/11/26 04:26:29;;;;;;;;;47.75;42.00;;;;;;;;4905157;29;45311;-75
2023/11/26 04:28:56;;;;;;;;;45.75;40.75;;;;;;;;4905048;29;45366;-75
2023/11/26 04:31:21;;;;;;;;;46.00;41.25;;;;;;;;4887895;29;47250;-74
2023/11/26 04:33:46;;;;;;;;;43.50;41.75;;;;;;;;4905035;29;45276;-75
2023/11/26 04:36:12;;;;;;;;;49.75;43.75;;;;;;;;4888121;29;45380;-75
2023/11/26 04:38:37;;;;;;;;;46.75;40.25;;;;;;;;4905039;29;45282;-75
2023/11/26 04:41:02;;;;;;;;;43.00;39.00;;;;;;;;4904673;29;45309;-75
2023/11/26 04:43:28;;;;;;;;;50.00;42.50;;;;;;;;4904820;29;45311;-75
2023/11/26 04:45:53;;;;;;;;;51.75;43.75;;;;;;;;4904981;29;45220;-76
2023/11/26 04:48:18;;;;;;;;;36.75;33.25;;;;;;;;4903860;29;45500;-75
2023/11/26 04:50:44;;;;;;;;;43.00;38.25;;;;;;;;4904921;29;45370;-75
2023/11/26 04:53:10;;;;;;;;;38.75;37.25;;;;;;;;4887497;29;45373;-76
2023/11/26 04:55:35;;;;;;;;;39.25;37.25;;;;;;;;4904503;29;45234;-75
2023/11/26 04:58:00;;;;;;;;;38.50;36.50;;;;;;;;4916955;28;45404;-75
2023/11/26 05:00:25;;;;;;;;;34.75;31.75;;;;;;;;4923713;28;45252;-76
2023/11/26 05:02:51;;;;;;;;;39.00;37.00;;;;;;;;4917712;28;45252;-75
2023/11/26 05:05:17;;;;;;;;;39.75;36.25;;;;;;;;4904572;29;45704;-74
2023/11/26 05:07:42;;;;;;;;;48.25;42.25;;;;;;;;4904045;29;45565;-75
2023/11/26 05:10:09;;;;;;;;;35.75;35.75;;;;;;;;4887112;29;47886;-75
2023/11/26 05:12:34;;;;;;;;;43.50;38.75;;;;;;;;4904115;29;45360;-75
2023/11/26 05:15:00;;;;;;;;;44.75;40.50;;;;;;;;4904546;29;45308;-75
2023/11/26 05:17:25;;;;;;;;;37.00;36.50;;;;;;;;4904304;29;45317;-76
2023/11/26 05:19:50;;;;;;;;;50.75;41.75;;;;;;;;4904355;29;46207;-75
2023/11/26 05:22:15;;;;;;;;;43.75;41.00;;;;;;;;4904382;29;45282;-75
2023/11/26 05:24:41;;;;;;;;;44.25;40.75;;;;;;;;4904177;29;45393;-75
2023/11/26 05:27:06;;;;;;;;;44.50;39.50;;;;;;;;4904311;29;45253;-75
2023/11/26 05:29:31;;;;;;;;;38.50;37.75;;;;;;;;4903934;29;45375;-75
2023/11/26 05:31:57;;;;;;;;;49.75;39.00;;;;;;;;4887007;29;45209;-75
2023/11/26 05:34:22;;;;;;;;;41.75;37.75;;;;;;;;4887318;29;45573;-75
2023/11/26 05:36:47;;;;;;;;;46.00;41.75;;;;;;;;4903861;29;45299;-75
2023/11/26 05:39:12;;;;;;;;;48.50;40.75;;;;;;;;4903794;29;45392;-75
2023/11/26 05:41:37;;;;;;;;;33.25;31.75;;;;;;;;4903920;29;45170;-76
2023/11/26 05:44:04;;;;;;;;;41.00;37.25;;;;;;;;4904206;29;45387;-75
2023/11/26 05:46:29;;;;;;;;;36.00;35.25;;;;;;;;4903894;29;45173;-75
2023/11/26 05:48:54;;;;;;;;;38.25;37.50;;;;;;;;4903578;29;46518;-75
2023/11/26 05:51:21;;;;;;;;;34.25;30.75;;;;;;;;4903872;29;45275;-76
2023/11/26 05:53:46;;;;;;;;;30.25;27.25;;;;;;;;4886653;29;45348;-75
2023/11/26 05:56:12;;;;;;;;;43.75;38.25;;;;;;;;4903644;29;45312;-75
2023/11/26 05:58:37;;;;;;;;;38.50;38.00;;;;;;;;4920871;28;46071;-76
2023/11/26 06:01:02;;;;;;;;;38.50;36.00;;;;;;;;4922751;28;45396;-76
2023/11/26 06:03:27;;;;;;;;;42.75;39.25;;;;;;;;4905355;28;45294;-76
2023/11/26 06:05:52;;;;;;;;;37.25;36.50;;;;;;;;4922600;28;45433;-75
2023/11/26 06:08:18;;;;;;;;;43.00;38.50;;;;;;;;4922449;28;46117;-75
2023/11/26 06:10:43;;;;;;;;;42.00;37.00;;;;;;;;4905089;28;45407;-75
2023/11/26 06:13:08;;;;;;;;;34.75;33.00;;;;;;;;4922733;28;45287;-75
2023/11/26 06:15:33;;;;;;;;;43.75;37.75;;;;;;;;4922729;28;45412;-75
2023/11/26 06:17:58;;;;;;;;;40.75;39.75;;;;;;;;4922432;28;45410;-75
2023/11/26 06:20:24;;;;;;;;;37.00;36.00;;;;;;;;4922239;28;45336;-75
2023/11/26 06:22:49;;;;;;;;;42.75;38.00;;;;;;;;4922509;28;45633;-76
2023/11/26 06:25:14;;;;;;;;;46.00;39.25;;;;;;;;4921958;28;45548;-75
2023/11/26 06:27:39;;;;;;;;;44.25;40.50;;;;;;;;4922363;28;45985;-75
2023/11/26 06:30:05;;;;;;;;;38.50;36.75;;;;;;;;4922220;28;45276;-75
2023/11/26 06:32:30;;;;;;;;;40.00;35.50;;;;;;;;4922283;28;45324;-76
2023/11/26 06:34:56;;;;;;;;;47.50;39.00;;;;;;;;4921775;28;45345;-76
2023/11/26 06:37:21;;;;;;;;;37.00;33.75;;;;;;;;4922254;28;45455;-75
2023/11/26 06:39:47;;;;;;;;;40.00;37.25;;;;;;;;4904763;28;45293;-76
2023/11/26 06:42:12;;;;;;;;;39.75;37.50;;;;;;;;4912216;28;45320;-75
2023/11/26 06:44:38;;;;;;;;;35.75;34.00;;;;;;;;4902817;29;45214;-75
2023/11/26 06:47:03;;;;;;;;;43.25;40.00;;;;;;;;4885410;29;47476;-74
2023/11/26 06:49:28;;;;;;;;;38.25;36.00;;;;;;;;4901981;29;45305;-73
2023/11/26 06:51:55;;;;;;;;;45.25;42.00;;;;;;;;4903134;29;45529;-75
2023/11/26 06:54:21;;;;;;;;;44.00;39.25;;;;;;;;4902723;29;45542;-75
2023/11/26 06:56:46;;;;;;;;;54.25;42.25;;;;;;;;4888412;28;47121;-75
2023/11/26 06:59:11;;;;;;;;;40.00;38.00;;;;;;;;4922014;28;45579;-74
2023/11/26 07:01:36;;;;;;;;;51.25;41.00;;;;;;;;4904710;28;45382;-74
2023/11/26 07:04:01;;;;;;;;;42.00;38.00;;;;;;;;4904296;28;46194;-75
2023/11/26 07:06:26;;;;;;;;;29.25;29.00;;;;;;;;4904472;28;46935;-74
2023/11/26 07:08:52;;;;;;;;;45.00;40.00;;;;;;;;4904126;28;45283;-75
2023/11/26 07:11:17;;;;;;;;;39.00;37.75;;;;;;;;4925611;28;45605;-75
2023/11/26 07:13:42;;;;;;;;;43.50;38.25;;;;;;;;4910770;28;46184;-75
2023/11/26 07:16:08;;;;;;;;;30.50;29.25;;;;;;;;4927991;28;45338;-75
2023/11/26 07:18:33;;;;;;;;;40.50;37.50;;;;;;;;4927829;28;45282;-75
2023/11/26 07:20:59;;;;;;;;;37.75;32.75;;;;;;;;4928020;28;46096;-75
2023/11/26 07:23:24;;;;;;;;;51.25;42.75;;;;;;;;4927982;28;45781;-76
2023/11/26 07:25:49;;;;;;;;;51.25;42.50;;;;;;;;4927848;28;45677;-76
2023/11/26 07:28:14;;;;;;;;;41.00;37.50;;;;;;;;4927888;28;45541;-76
2023/11/26 07:30:43;;;;;;;;;40.75;38.50;;;;;;;;4928265;28;45378;-74
2023/11/26 07:33:09;;;;;;;;;37.50;34.25;;;;;;;;4910665;28;46067;-76
2023/11/26 07:35:34;;;;;;;;;38.00;34.75;;;;;;;;4910106;28;48375;-76
2023/11/26 07:38:03;;;;;;;;;42.25;38.25;;;;;;;;4927939;28;45471;-75
2023/11/26 07:40:29;;;;;;;;;34.75;34.00;;;;;;;;4927932;28;45377;-76
2023/11/26 07:42:54;;;;;;;;;40.25;35.75;;;;;;;;4927781;28;45572;-75
2023/11/26 07:45:19;;;;;;;;;36.00;35.00;;;;;;;;4927473;28;46204;-76
2023/11/26 07:47:44;;;;;;;;;65.25;51.25;;;;;;;;4910913;28;45436;-75
2023/11/26 07:50:10;;;;;;;;;57.25;48.75;;;;;;;;4927803;28;45463;-75
2023/11/26 07:52:36;;;;;;;;;61.25;50.00;;;;;;;;4927789;28;45560;-76
2023/11/26 07:55:04;;;;;;;;;56.25;45.00;;;;;;;;4927520;28;46373;-74
2023/11/26 07:57:30;;;;;;;;;38.50;35.50;;;;;;;;4918807;28;45416;-76
2023/11/26 07:59:57;;;;;;;;;44.50;41.00;;;;;;;;4908776;29;45357;-75
2023/11/26 08:02:23;;;;;;;;;38.50;33.25;;;;;;;;4908221;29;45462;-75
2023/11/26 08:04:49;;;;;;;;;41.50;39.50;;;;;;;;4908099;29;46071;-76
2023/11/26 08:07:15;;;;;;;;;38.75;37.25;;;;;;;;4908476;29;45341;-76
2023/11/26 08:09:40;;;;;;;;;43.00;38.75;;;;;;;;4908213;29;45240;-75
2023/11/26 08:12:10;;;;;;;;;47.25;41.25;;;;;;;;4907919;29;45231;-75
2023/11/26 08:14:35;;;;;;;;;52.75;44.00;;;;;;;;4908123;29;45990;-76
2023/11/26 08:17:04;;;;;;;;;44.25;39.25;;;;;;;;4891248;29;45732;-75
2023/11/26 08:19:29;;;;;;;;;44.75;39.75;;;;;;;;4891295;29;45334;-76
2023/11/26 08:21:55;;;;;;;;;39.00;37.25;;;;;;;;4889068;29;46278;-76
2023/11/26 08:24:20;;;;;;;;;44.75;39.75;;;;;;;;4887493;29;47399;-76
2023/11/26 08:26:46;;;;;;;;;43.75;37.25;;;;;;;;4905085;29;45252;-75
2023/11/26 08:29:13;;;;;;;;;41.50;37.75;;;;;;;;4903975;29;45422;-76
2023/11/26 08:31:39;;;;;;;;;45.00;41.00;;;;;;;;4905122;29;45407;-76
2023/11/26 08:34:05;;;;;;;;;53.50;45.25;;;;;;;;4904892;29;45337;-75
2023/11/26 08:36:33;;;;;;;;;54.00;46.25;;;;;;;;4905010;29;45340;-75
2023/11/26 08:38:58;;;;;;;;;47.50;41.25;;;;;;;;4904806;29;45356;-76
2023/11/26 08:41:25;;;;;;;;;62.75;52.50;;;;;;;;4904976;29;45353;-75
2023/11/26 08:43:50;;;;;;;;;56.00;46.75;;;;;;;;4904785;29;45388;-76
2023/11/26 08:46:16;;;;;;;;;52.00;45.00;;;;;;;;4904852;29;45344;-75
2023/11/26 08:48:41;;;;;;;;;52.75;43.75;;;;;;;;4887717;29;45258;-76
2023/11/26 08:51:07;;;;;;;;;59.50;49.50;;;;;;;;4887528;29;47093;-76
2023/11/26 08:53:33;;;;;;;;;65.00;52.50;;;;;;;;4904646;29;45376;-75
2023/11/26 08:55:58;;;;;;;;;92.00;79.25;;;;;;;;4904807;29;45261;-76
2023/11/26 08:58:23;;;;;;;;;72.25;58.25;;;;;;;;4920233;28;45852;-76
2023/11/26 09:00:48;;;;;;;;;64.00;54.00;;;;;;;;4923786;28;45152;-76
2023/11/26 09:03:14;;;;;;;;;55.00;43.25;;;;;;;;4923640;28;45481;-76
2023/11/26 09:05:39;;;;;;;;;50.50;41.75;;;;;;;;4923559;28;45327;-76
2023/11/26 09:08:05;;;;;;;;;42.75;37.75;;;;;;;;4906524;28;45780;-76
2023/11/26 09:10:30;;;;;;;;;46.50;41.00;;;;;;;;4905878;28;46987;-76
2023/11/26 09:12:55;;;;;;;;;44.00;39.00;;;;;;;;4923442;28;46162;-76
2023/11/26 09:15:21;;;;;;;;;44.00;39.25;;;;;;;;4905957;28;45331;-77
2023/11/26 09:17:46;;;;;;;;;55.75;45.25;;;;;;;;4923524;28;45323;-75
2023/11/26 09:20:12;;;;;;;;;46.25;40.00;;;;;;;;4905902;28;45431;-77
2023/11/26 09:22:40;;;;;;;;;47.25;41.50;;;;;;;;4906000;28;48186;-76
2023/11/26 09:25:09;;;;;;;;;49.75;41.25;;;;;;;;4922928;28;45263;-76
2023/11/26 09:27:35;;;;;;;;;48.25;41.75;;;;;;;;4922990;28;45354;-77
2023/11/26 09:30:00;;;;;;;;;42.25;38.00;;;;;;;;4905888;28;46214;-77
2023/11/26 09:32:26;;;;;;;;;52.25;43.75;;;;;;;;4922950;28;46570;-77
2023/11/26 09:34:52;;;;;;;;;54.00;44.25;;;;;;;;4922429;28;45590;-78
2023/11/26 09:37:18;;;;;;;;;55.50;46.00;;;;;;;;4923172;28;45324;-78
2023/11/26 09:39:43;;;;;;;;;50.25;43.25;;;;;;;;4922679;28;45506;-79
2023/11/26 09:42:10;;;;;;;;;56.50;43.00;;;;;;;;4922820;28;45955;-78
2023/11/26 09:44:35;;;;;;;;;45.50;38.75;;;;;;;;4922673;28;45420;-78
2023/11/26 09:47:01;;;;;;;;;55.25;47.00;;;;;;;;4923180;28;45327;-78
2023/11/26 09:49:27;;;;;;;;;53.00;43.50;;;;;;;;4905411;28;45930;-78
2023/11/26 09:51:55;;;;;;;;;51.25;42.00;;;;;;;;4922722;28;46107;-80
2023/11/26 09:54:20;;;;;;;;;53.25;44.25;;;;;;;;4905412;28;46198;-78
2023/11/26 09:56:46;;;;;;;;;48.75;39.75;;;;;;;;4919863;28;45227;-78
2023/11/26 09:59:27;;;;;;;;;48.00;40.50;;;;;;;;4903619;29;45402;-78
2023/11/26 10:01:52;;;;;;;;;39.75;35.50;;;;;;;;4903284;29;46281;-78
2023/11/26 10:04:17;;;;;;;;;57.25;45.50;;;;;;;;4903012;29;45363;-79
2023/11/26 10:06:48;;;;;;;;;51.00;42.00;;;;;;;;4902421;29;45267;-79
2023/11/26 10:09:16;;;;;;;;;45.75;38.75;;;;;;;;4902975;29;45548;-78
2023/11/26 10:11:41;;;;;;;;;40.75;35.00;;;;;;;;4903197;29;46256;-79
2023/11/26 10:14:12;;;;;;;;;42.25;37.00;;;;;;;;4903261;29;45222;-79
2023/11/26 10:16:37;;;;;;;;;36.50;33.00;;;;;;;;4886506;29;45332;-78
2023/11/26 10:19:03;;;;;;;;;33.50;33.00;;;;;;;;4903100;29;45326;-78
2023/11/26 10:21:29;;;;;;;;;35.75;31.25;;;;;;;;4886197;29;47595;-79
2023/11/26 10:23:54;;;;;;;;;36.00;34.67;;;;;;;;4903003;29;45748;-78
2023/11/26 10:26:23;;;;;;;;;29.67;28.33;;;;;;;;4903369;29;45440;-78
2023/11/26 10:29:12;;;;;;;;;34.33;32.00;;;;;;;;4885895;29;47064;-78
2023/11/26 10:31:56;;;;;;;;;27.00;27.00;;;;;;;;4885839;29;47287;-79
2023/11/26 10:34:21;;;;;;;;;30.67;30.67;;;;;;;;4885915;29;45831;-79
2023/11/26 10:36:46;;;;;;;;;32.67;32.00;;;;;;;;4902943;29;45622;-78
2023/11/26 10:39:12;;;;;;;;;25.67;25.33;;;;;;;;4885658;29;47002;-79
2023/11/26 10:41:37;;;;;;;;;28.00;27.67;;;;;;;;4885843;29;48204;-78
2023/11/26 10:44:03;;;;;;;;;29.33;27.00;;;;;;;;4885964;29;45463;-79
2023/11/26 10:46:33;;;;;;;;;33.33;30.33;;;;;;;;4885212;29;45487;-78
2023/11/26 10:49:18;;;;;;;;;32.33;30.67;;;;;;;;4902600;29;45305;-79
2023/11/26 10:51:54;;;;;;;;;33.00;29.33;;;;;;;;4872483;29;47284;-78
2023/11/26 10:54:39;;;;;;;;;32.75;32.50;;;;;;;;4902692;29;45421;-78
2023/11/26 10:57:13;;;;;;;;;31.33;27.00;;;;;;;;4907126;28;45464;-78
2023/11/26 10:59:42;;;;;;;;;31.00;28.00;;;;;;;;4921725;28;45464;-79
2023/11/26 11:02:09;;;;;;;;;31.00;28.67;;;;;;;;4904470;28;47286;-78
2023/11/26 11:04:35;;;;;;;;;35.00;32.67;;;;;;;;4904465;28;45431;-78
2023/11/26 11:07:01;;;;;;;;;34.33;30.33;;;;;;;;4904841;28;45355;-79
2023/11/26 11:09:32;;;;;;;;;35.33;34.00;;;;;;;;4921663;28;45303;-78
2023/11/26 11:12:08;;;;;;;;;37.33;32.00;;;;;;;;4921496;28;45300;-78
2023/11/26 11:14:33;;;;;;;;;33.67;32.00;;;;;;;;4921576;28;45667;-78
2023/11/26 11:16:59;;;;;;;;;32.33;29.67;;;;;;;;4904546;28;45375;-78
2023/11/26 11:19:43;;;;;;;;;29.33;29.00;;;;;;;;4921714;28;45434;-79
2023/11/26 11:22:09;;;;;;;;;38.67;34.00;;;;;;;;4921576;28;45290;-79
2023/11/26 11:24:34;;;;;;;;;35.33;31.00;;;;;;;;4903985;28;45527;-78
2023/11/26 11:26:59;;;;;;;;;38.00;34.00;;;;;;;;4904671;28;45561;-80
2023/11/26 11:29:31;;;;;;;;;43.75;36.75;;;;;;;;4903944;28;45875;-78
2023/11/26 11:32:00;;;;;;;;;33.33;31.33;;;;;;;;4921464;28;46535;-79
2023/11/26 11:34:25;;;;;;;;;34.75;32.25;;;;;;;;4921266;28;45403;-78
2023/11/26 11:36:51;;;;;;;;;36.33;33.67;;;;;;;;4921236;28;45263;-77
2023/11/26 11:39:17;;;;;;;;;35.33;32.33;;;;;;;;4903810;28;46677;-78
2023/11/26 11:42:03;;;;;;;;;32.00;31.00;;;;;;;;4921293;28;45236;-78
2023/11/26 11:44:31;;;;;;;;;34.00;32.33;;;;;;;;4921150;28;45304;-78
2023/11/26 11:46:57;;;;;;;;;33.33;31.67;;;;;;;;4903974;28;45373;-78
2023/11/26 11:49:22;;;;;;;;;33.33;33.00;;;;;;;;4921103;28;45565;-78
2023/11/26 11:51:48;;;;;;;;;33.33;31.33;;;;;;;;4903974;28;47495;-78
2023/11/26 11:54:30;;;;;;;;;36.33;35.00;;;;;;;;4920972;28;45256;-79
2023/11/26 11:56:59;;;;;;;;;37.00;35.33;;;;;;;;4901056;29;45383;-78
2023/11/26 11:59:25;;;;;;;;;44.00;38.75;;;;;;;;4905311;29;45386;-78
2023/11/26 12:01:51;;;;;;;;;36.00;32.67;;;;;;;;4905405;29;45807;-79
2023/11/26 12:04:16;;;;;;;;;38.67;35.00;;;;;;;;4905067;29;45296;-79
2023/11/26 12:06:47;;;;;;;;;35.00;33.00;;;;;;;;4888303;29;45394;-79
2023/11/26 12:09:12;;;;;;;;;33.00;30.33;;;;;;;;4887406;29;46235;-78
2023/11/26 12:11:41;;;;;;;;;39.00;33.50;;;;;;;;4904927;29;46676;-79
2023/11/26 12:14:07;;;;;;;;;38.00;32.67;;;;;;;;4888018;29;45843;-79
2023/11/26 12:16:33;;;;;;;;;37.67;32.67;;;;;;;;4887910;29;45422;-77
2023/11/26 12:18:58;;;;;;;;;32.67;32.00;;;;;;;;4905015;29;45266;-78
2023/11/26 12:21:23;;;;;;;;;34.67;32.33;;;;;;;;4887845;29;48628;-78
2023/11/26 12:23:50;;;;;;;;;36.67;33.00;;;;;;;;4904618;29;45304;-78
2023/11/26 12:26:15;;;;;;;;;31.67;29.33;;;;;;;;4905362;29;45232;-79
2023/11/26 12:28:44;;;;;;;;;36.00;33.33;;;;;;;;4904781;29;45339;-78
2023/11/26 12:31:10;;;;;;;;;33.00;31.67;;;;;;;;4904725;29;45379;-78
2023/11/26 12:33:36;;;;;;;;;30.00;28.67;;;;;;;;4904013;29;45431;-78
2023/11/26 12:36:02;;;;;;;;;37.33;33.33;;;;;;;;4904476;29;45259;-79
2023/11/26 12:38:27;;;;;;;;;37.67;34.00;;;;;;;;4903544;29;45486;-78
2023/11/26 12:40:52;;;;;;;;;37.67;32.67;;;;;;;;4904932;29;45649;-80
2023/11/26 12:43:18;;;;;;;;;32.67;29.33;;;;;;;;4904758;29;45329;-79
2023/11/26 12:45:43;;;;;;;;;34.67;32.00;;;;;;;;4904912;29;45708;-80
2023/11/26 12:48:08;;;;;;;;;30.33;29.00;;;;;;;;4887685;29;46161;-78
2023/11/26 12:50:44;;;;;;;;;31.67;31.33;;;;;;;;4904444;29;45269;-78
2023/11/26 12:53:10;;;;;;;;;28.67;23.33;;;;;;;;4887342;29;45423;-78
2023/11/26 12:55:42;;;;;;;;;34.00;29.67;;;;;;;;4904473;29;45281;-78
2023/11/26 12:58:07;;;;;;;;;36.33;34.00;;;;;;;;4917568;28;45370;-79
2023/11/26 13:00:37;;;;;;;;;29.33;29.33;;;;;;;;4923409;28;46361;-78
2023/11/26 13:03:06;;;;;;;;;30.67;28.00;;;;;;;;4906273;28;45365;-78
2023/11/26 13:05:31;;;;;;;;;35.33;32.00;;;;;;;;4923396;28;45502;-79
2023/11/26 13:07:57;;;;;;;;;38.00;34.33;;;;;;;;4923052;28;45488;-79
2023/11/26 13:10:41;;;;;;;;;36.00;31.00;;;;;;;;4922966;28;45581;-79
2023/11/26 13:13:06;;;;;;;;;25.33;25.33;;;;;;;;4906120;28;45321;-78
2023/11/26 13:15:31;;;;;;;;;29.33;26.00;;;;;;;;4923492;28;45538;-80
2023/11/26 13:17:57;;;;;;;;;26.67;26.33;;;;;;;;4923327;28;45276;-79
2023/11/26 13:20:23;;;;;;;;;23.33;23.33;;;;;;;;4906033;28;48106;-79
2023/11/26 13:22:54;;;;;;;;;29.00;27.00;;;;;;;;4923134;28;45303;-78
2023/11/26 13:25:19;;;;;;;;;29.67;28.00;;;;;;;;4905486;28;45470;-79
2023/11/26 13:27:45;;;;;;;;;37.67;32.00;;;;;;;;4905518;28;46004;-78
2023/11/26 13:30:11;;;;;;;;;29.00;28.00;;;;;;;;4923139;28;45610;-79
2023/11/26 13:32:36;;;;;;;;;35.00;31.67;;;;;;;;4923148;28;45721;-78
2023/11/26 13:35:01;;;;;;;;;32.67;29.00;;;;;;;;4905915;28;45597;-78
2023/11/26 13:37:26;;;;;;;;;24.67;24.33;;;;;;;;4923236;28;45310;-79
2023/11/26 13:39:51;;;;;;;;;24.00;22.67;;;;;;;;4922982;28;46228;-76
2023/11/26 13:42:17;;;;;;;;;29.33;29.33;;;;;;;;4922668;28;45349;-78
2023/11/26 13:44:42;;;;;;;;;30.67;28.67;;;;;;;;4923164;28;45244;-79
2023/11/26 13:47:07;;;;;;;;;31.67;31.33;;;;;;;;4924875;28;45300;-80
2023/11/26 13:49:32;;;;;;;;;28.33;26.67;;;;;;;;4924804;28;46438;-79
2023/11/26 13:52:00;;;;;;;;;23.00;23.00;;;;;;;;4907081;28;45816;-80
2023/11/26 13:54:25;;;;;;;;;19.67;18.00;;;;;;;;4921540;28;45291;-81
2023/11/26 13:56:50;;;;;;;;;13.67;13.00;;;;;;;;4893197;28;45758;-78
2023/11/26 13:59:17;;;;;;;;;24.00;22.67;;;;;;;;4890100;29;48310;-77
2023/11/26 14:01:44;;;;;;;;;21.00;18.67;;;;;;;;4902608;29;45428;-80
2023/11/26 14:04:10;;;;;;;;;20.33;19.33;;;;;;;;4904255;29;45495;-79
2023/11/26 14:06:35;;;;;;;;;19.00;18.00;;;;;;;;4904068;29;45399;-78
2023/11/26 14:09:00;;;;;;;;;16.00;16.00;;;;;;;;4897412;29;46474;-78
2023/11/26 14:11:25;;;;;;;;;11.33;11.33;;;;;;;;4900724;29;45452;-78
2023/11/26 14:13:50;;;;;;;;;11.67;11.67;;;;;;;;4896618;28;45264;-77